Time;durP1;ratioP1;P1;durP2;ratioP2;P2;SDS_P1;SDS_P2;PMS_P1;PMS_P2;Temp;Humidity;BMP_temperature;BMP_pressure;BME280_temperature;BME280_humidity;BME280_pressure;Samples;Min_cycle;Max_cycle;Signal;HPM_P1;HPM_P2
2023/11/25 00:01:02;;;;;;;9.38;1.83;;;;;;;2.08;100.00;100902.84;5040628;28;20120;-65
2023/11/25 00:03:28;;;;;;;12.02;1.55;;;;;;;2.11;100.00;100893.22;5036434;28;20703;-66
2023/11/25 00:05:54;;;;;;;13.15;1.90;;;;;;;2.08;100.00;100893.41;5033312;28;20037;-66
2023/11/25 00:08:20;;;;;;;11.00;1.67;;;;;;;2.07;100.00;100891.78;5042119;28;20487;-66
2023/11/25 00:10:47;;;;;;;6.90;2.38;;;;;;;2.05;100.00;100898.72;5040915;28;20808;-66
2023/11/25 00:13:14;;;;;;;9.75;1.90;;;;;;;2.02;100.00;100906.63;5039986;28;20041;-66
2023/11/25 00:15:40;;;;;;;7.43;1.30;;;;;;;2.02;100.00;100909.16;5039814;28;20068;-67
2023/11/25 00:18:06;;;;;;;12.55;2.35;;;;;;;1.99;100.00;100904.25;5041318;28;20056;-66
2023/11/25 00:20:31;;;;;;;11.50;2.83;;;;;;;2.00;100.00;100908.44;5039159;28;20033;-66
2023/11/25 00:22:57;;;;;;;9.52;2.05;;;;;;;2.00;100.00;100905.88;5034946;28;20381;-66
2023/11/25 00:25:27;;;;;;;7.20;1.48;;;;;;;2.01;100.00;100911.81;5036420;28;20462;-66
2023/11/25 00:27:52;;;;;;;6.43;1.65;;;;;;;2.01;100.00;100906.69;5042514;28;20037;-66
2023/11/25 00:30:18;;;;;;;9.85;1.75;;;;;;;2.03;100.00;100918.47;5041851;28;20059;-67
2023/11/25 00:32:44;;;;;;;10.65;2.10;;;;;;;2.06;100.00;100917.47;5041934;28;20037;-66
2023/11/25 00:35:10;;;;;;;12.85;2.58;;;;;;;2.05;100.00;100908.94;5041512;28;20152;-66
2023/11/25 00:37:37;;;;;;;13.27;1.77;;;;;;;2.06;100.00;100905.50;5047578;28;20036;-66
2023/11/25 00:40:04;;;;;;;11.07;1.85;;;;;;;2.08;100.00;100895.97;5056260;28;20830;-66
2023/11/25 00:42:31;;;;;;;10.45;2.13;;;;;;;2.10;100.00;100898.44;5044237;28;20021;-66
2023/11/25 00:44:57;;;;;;;11.80;2.88;;;;;;;2.06;100.00;100904.69;5058371;28;20046;-66
2023/11/25 00:47:23;;;;;;;12.35;2.72;;;;;;;2.04;100.00;100906.53;5028655;28;20438;-66
2023/11/25 00:49:49;;;;;;;17.73;2.10;;;;;;;2.03;100.00;100892.06;5035477;28;20203;-66
2023/11/25 00:52:17;;;;;;;16.42;2.50;;;;;;;2.03;100.00;100898.00;5039718;28;20029;-66
2023/11/25 00:54:43;;;;;;;23.45;2.47;;;;;;;2.09;100.00;100895.06;5040835;28;20511;-66
2023/11/25 00:57:08;;;;;;;13.85;2.92;;;;;;;2.00;100.00;100899.94;5043201;28;20094;-66
2023/11/25 00:59:34;;;;;;;11.43;1.52;;;;;;;2.01;100.00;100899.84;5037081;28;20040;-66
2023/11/25 01:01:59;;;;;;;14.30;3.17;;;;;;;1.97;100.00;100908.63;5026357;28;20482;-66
2023/11/25 01:04:25;;;;;;;14.68;1.80;;;;;;;1.91;100.00;100911.59;5039404;28;21168;-66
2023/11/25 01:06:50;;;;;;;9.10;2.92;;;;;;;1.95;100.00;100913.03;5041142;28;20036;-66
2023/11/25 01:09:17;;;;;;;10.48;1.98;;;;;;;1.98;100.00;100912.00;5040138;28;20048;-66
2023/11/25 01:11:43;;;;;;;15.63;2.40;;;;;;;1.99;100.00;100921.34;5043733;28;20045;-66
2023/11/25 01:14:09;;;;;;;19.55;3.33;;;;;;;1.94;100.00;100929.28;5044804;28;20033;-67
2023/11/25 01:16:35;;;;;;;19.13;2.28;;;;;;;1.89;100.00;100932.13;5047762;28;20033;-66
2023/11/25 01:19:00;;;;;;;11.60;2.35;;;;;;;1.94;100.00;100927.56;5048212;28;20040;-66
2023/11/25 01:21:26;;;;;;;20.92;2.70;;;;;;;1.91;100.00;100935.41;5040737;28;20048;-66
2023/11/25 01:23:51;;;;;;;22.38;2.45;;;;;;;1.85;100.00;100937.56;5044218;28;20025;-66
2023/11/25 01:26:17;;;;;;;11.77;2.63;;;;;;;1.72;100.00;100934.94;5040642;28;20107;-66
2023/11/25 01:28:43;;;;;;;12.27;2.10;;;;;;;1.62;100.00;100936.41;5041826;28;20391;-66
2023/11/25 01:31:10;;;;;;;14.55;2.72;;;;;;;1.69;100.00;100940.22;5036800;28;20049;-66
2023/11/25 01:33:36;;;;;;;20.23;3.15;;;;;;;1.72;100.00;100945.97;5043617;28;20021;-65
2023/11/25 01:36:02;;;;;;;16.02;2.63;;;;;;;1.62;100.00;100946.63;5038476;28;20174;-66
2023/11/25 01:38:28;;;;;;;16.60;3.00;;;;;;;1.62;100.00;100947.47;5041770;28;20060;-66
2023/11/25 01:40:55;;;;;;;18.48;2.28;;;;;;;1.62;100.00;100946.63;5034532;28;20131;-66
2023/11/25 01:43:23;;;;;;;13.27;2.05;;;;;;;1.62;100.00;100949.19;5038060;28;20132;-65
2023/11/25 01:45:50;;;;;;;11.77;1.88;;;;;;;1.60;100.00;100959.53;5042844;28;20036;-66
2023/11/25 01:48:17;;;;;;;14.48;2.63;;;;;;;1.53;100.00;100946.28;5040047;28;20021;-66
2023/11/25 01:50:45;;;;;;;7.93;1.48;;;;;;;1.47;100.00;100946.66;5034018;28;20492;-66
2023/11/25 01:53:14;;;;;;;15.10;2.45;;;;;;;1.61;100.00;100948.38;5039101;28;20056;-65
2023/11/25 01:55:40;;;;;;;17.95;2.05;;;;;;;1.59;100.00;100947.66;5035688;28;20072;-66
2023/11/25 01:58:07;;;;;;;17.08;1.80;;;;;;;1.49;100.00;100947.41;5041605;28;20040;-66
2023/11/25 02:00:34;;;;;;;9.98;1.80;;;;;;;1.53;100.00;100948.84;5043776;28;20036;-66
2023/11/25 02:03:00;;;;;;;13.38;1.80;;;;;;;1.41;100.00;100959.81;5031976;28;20502;-66
2023/11/25 02:05:27;;;;;;;16.38;2.00;;;;;;;1.36;100.00;100960.09;5029130;28;20037;-65
2023/11/25 02:07:52;;;;;;;18.02;2.65;;;;;;;1.31;100.00;100959.53;5028680;28;20032;-66
2023/11/25 02:10:19;;;;;;;14.52;1.83;;;;;;;1.35;100.00;100955.88;5025810;28;20124;-66
2023/11/25 02:12:46;;;;;;;18.60;2.50;;;;;;;1.39;100.00;100951.41;5036535;28;20029;-66
2023/11/25 02:15:14;;;;;;;21.77;2.72;;;;;;;1.41;100.00;100957.25;5033379;28;20506;-66
2023/11/25 02:17:46;;;;;;;13.02;2.45;;;;;;;1.30;100.00;100955.34;5042738;28;20032;-65
2023/11/25 02:20:13;;;;;;;16.05;1.95;;;;;;;1.32;100.00;100945.06;5035935;28;20033;-66
2023/11/25 02:22:50;;;;;;;21.02;2.70;;;;;;;1.30;100.00;100945.13;5041382;28;20550;-66
2023/11/25 02:25:16;;;;;;;12.48;1.90;;;;;;;1.31;100.00;100941.66;5021363;28;20442;-65
2023/11/25 02:27:41;;;;;;;11.85;1.92;;;;;;;1.28;100.00;100943.56;5037132;28;20029;-65
2023/11/25 02:30:08;;;;;;;8.43;1.65;;;;;;;1.22;100.00;100938.84;5031363;28;20407;-65
2023/11/25 02:32:33;;;;;;;11.15;1.63;;;;;;;1.29;100.00;100943.47;5035882;28;20048;-65
2023/11/25 02:35:00;;;;;;;14.32;2.03;;;;;;;1.19;100.00;100949.22;5034783;28;20395;-65
2023/11/25 02:37:26;;;;;;;18.88;2.25;;;;;;;1.20;100.00;100958.56;5022109;28;20052;-66
2023/11/25 02:39:51;;;;;;;14.07;1.85;;;;;;;1.25;100.00;100946.34;5035478;28;20041;-66
2023/11/25 02:42:17;;;;;;;15.73;1.83;;;;;;;1.24;100.00;100939.56;5036631;28;20025;-65
2023/11/25 02:44:43;;;;;;;17.15;1.90;;;;;;;1.33;100.00;100939.81;5038730;28;20399;-66
2023/11/25 02:47:09;;;;;;;11.57;1.55;;;;;;;1.29;100.00;100943.47;5056219;28;20093;-66
2023/11/25 02:49:34;;;;;;;20.38;2.35;;;;;;;1.37;100.00;100963.47;5036649;28;20041;-66
2023/11/25 02:52:00;;;;;;;19.98;2.70;;;;;;;1.35;100.00;100952.50;5021608;28;20029;-66
2023/11/25 02:54:26;;;;;;;22.65;3.55;;;;;;;1.37;100.00;100958.34;5035640;28;20694;-65
2023/11/25 02:56:51;;;;;;;16.88;2.10;;;;;;;1.26;100.00;100950.50;5032877;28;20029;-66
2023/11/25 02:59:22;;;;;;;20.45;2.08;;;;;;;1.31;100.00;100943.41;5034801;28;20044;-66
2023/11/25 03:01:52;;;;;;;15.98;2.53;;;;;;;1.28;100.00;100949.53;5037230;28;20044;-65
2023/11/25 03:04:19;;;;;;;16.88;2.20;;;;;;;1.27;100.00;100952.97;5035301;28;20392;-66
2023/11/25 03:06:45;;;;;;;20.67;1.95;;;;;;;1.30;100.00;100941.75;5041110;28;20051;-66
2023/11/25 03:09:13;;;;;;;22.95;3.20;;;;;;;1.33;100.00;100942.38;5035203;28;20040;-66
2023/11/25 03:11:39;;;;;;;17.92;2.38;;;;;;;1.28;100.00;100946.13;5014842;28;20052;-66
2023/11/25 03:14:06;;;;;;;22.33;1.95;;;;;;;1.47;100.00;100948.38;5032720;28;20037;-66
2023/11/25 03:16:35;;;;;;;17.48;2.40;;;;;;;1.40;100.00;100950.50;5020291;28;20098;-66
2023/11/25 03:19:01;;;;;;;13.68;1.58;;;;;;;1.38;100.00;100948.97;5032843;28;20041;-66
2023/11/25 03:21:28;;;;;;;16.48;2.75;;;;;;;1.31;100.00;100936.53;5032137;28;20041;-66
2023/11/25 03:23:53;;;;;;;10.73;1.73;;;;;;;1.29;100.00;100940.13;5035900;28;20092;-66
2023/11/25 03:26:19;;;;;;;16.95;2.30;;;;;;;1.34;100.00;100944.03;5032479;28;20041;-66
2023/11/25 03:28:44;;;;;;;13.05;2.00;;;;;;;1.36;100.00;100943.94;5036909;28;20029;-66
2023/11/25 03:31:10;;;;;;;18.08;2.80;;;;;;;1.39;100.00;100936.06;5033513;28;20462;-65
2023/11/25 03:33:36;;;;;;;25.17;3.63;;;;;;;1.35;100.00;100939.75;5047480;28;20032;-66
2023/11/25 03:36:03;;;;;;;13.38;1.95;;;;;;;1.48;100.00;100947.50;5034998;28;20376;-66
2023/11/25 03:38:29;;;;;;;17.50;2.58;;;;;;;1.47;100.00;100948.38;5035214;28;20025;-65
2023/11/25 03:40:55;;;;;;;21.25;2.20;;;;;;;1.57;100.00;100946.94;5033586;28;20476;-66
2023/11/25 03:43:21;;;;;;;31.85;3.78;;;;;;;1.60;100.00;100946.75;5034686;28;20037;-66
2023/11/25 03:45:47;;;;;;;13.07;1.83;;;;;;;1.56;100.00;100947.81;5031743;28;20861;-66
2023/11/25 03:48:14;;;;;;;26.35;2.30;;;;;;;1.70;100.00;100939.31;5033853;28;20129;-66
2023/11/25 03:50:40;;;;;;;17.25;2.88;;;;;;;1.67;100.00;100945.44;5032637;28;20037;-66
2023/11/25 03:53:06;;;;;;;16.50;1.73;;;;;;;1.67;100.00;100937.75;5035249;28;20040;-65
2023/11/25 03:55:32;;;;;;;16.55;2.03;;;;;;;1.72;100.00;100933.19;5015216;28;20033;-66
2023/11/25 03:57:59;;;;;;;16.52;2.50;;;;;;;1.69;100.00;100941.03;5037496;28;20036;-66
2023/11/25 04:00:25;;;;;;;31.83;2.95;;;;;;;1.73;100.00;100932.28;5036347;28;20041;-65
2023/11/25 04:02:51;;;;;;;18.52;1.92;;;;;;;1.85;100.00;100942.66;5039912;28;20120;-66
2023/11/25 04:05:17;;;;;;;18.05;1.83;;;;;;;1.80;100.00;100929.34;5037601;28;20094;-66
2023/11/25 04:07:43;;;;;;;20.92;2.00;;;;;;;1.80;100.00;100925.03;5056476;28;20415;-66
2023/11/25 04:10:13;;;;;;;17.30;2.70;;;;;;;1.69;100.00;100920.59;5021654;28;20064;-65
2023/11/25 04:12:41;;;;;;;15.88;2.03;;;;;;;1.71;100.00;100934.13;5023076;28;20041;-65
2023/11/25 04:15:08;;;;;;;13.50;1.70;;;;;;;1.64;100.00;100929.47;5024890;28;20060;-66
2023/11/25 04:17:34;;;;;;;21.05;1.92;;;;;;;1.64;100.00;100917.53;5039484;28;20506;-66
2023/11/25 04:20:00;;;;;;;16.65;2.28;;;;;;;1.60;100.00;100931.41;5039806;28;20040;-66
2023/11/25 04:22:25;;;;;;;21.98;2.83;;;;;;;1.59;100.00;100937.44;5040046;28;20078;-65
2023/11/25 04:24:52;;;;;;;22.75;2.60;;;;;;;1.51;100.00;100927.69;5040171;28;20052;-65
2023/11/25 04:27:18;;;;;;;22.23;4.07;;;;;;;1.48;100.00;100930.41;5044345;28;20080;-65
2023/11/25 04:29:43;;;;;;;17.20;1.88;;;;;;;1.47;100.00;100935.59;5041570;28;20045;-65
2023/11/25 04:32:09;;;;;;;23.48;2.80;;;;;;;1.45;100.00;100930.63;5042632;28;20036;-66
2023/11/25 04:34:34;;;;;;;15.30;2.17;;;;;;;1.39;100.00;100923.28;5044643;28;20033;-66
2023/11/25 04:37:00;;;;;;;17.27;1.73;;;;;;;1.33;100.00;100931.34;5041619;28;20044;-66
2023/11/25 04:39:25;;;;;;;16.42;2.40;;;;;;;1.39;100.00;100945.50;5034576;28;20376;-66
2023/11/25 04:41:51;;;;;;;18.50;1.92;;;;;;;1.38;100.00;100943.88;5041487;28;20040;-65
2023/11/25 04:44:16;;;;;;;23.38;2.60;;;;;;;1.27;100.00;100947.88;5045562;28;20043;-66
2023/11/25 04:46:45;;;;;;;17.08;2.00;;;;;;;1.33;100.00;100949.22;5043149;28;20029;-65
2023/11/25 04:49:11;;;;;;;25.48;2.85;;;;;;;1.32;100.00;100942.50;5043562;28;20036;-66
2023/11/25 04:51:37;;;;;;;24.08;2.17;;;;;;;1.42;100.00;100940.19;5041044;28;20032;-66
2023/11/25 04:54:03;;;;;;;9.05;1.98;;;;;;;1.37;100.00;100943.00;5046479;28;20483;-65
2023/11/25 04:56:28;;;;;;;15.25;3.47;;;;;;;1.45;100.00;100940.00;5043613;28;20040;-65
2023/11/25 04:58:53;;;;;;;25.58;2.28;;;;;;;1.47;100.00;100948.38;5047135;28;20047;-66
2023/11/25 05:01:19;;;;;;;16.02;2.03;;;;;;;1.57;100.00;100949.47;5040636;28;20030;-66
2023/11/25 05:03:45;;;;;;;21.23;2.47;;;;;;;1.62;100.00;100951.75;5044891;28;20033;-66
2023/11/25 05:06:10;;;;;;;23.40;3.13;;;;;;;1.59;100.00;100949.41;5042459;28;20048;-66
2023/11/25 05:08:36;;;;;;;32.75;4.88;;;;;;;1.63;100.00;100950.84;5046087;28;20039;-65
2023/11/25 05:11:01;;;;;;;34.00;7.70;;;;;;;1.51;100.00;100945.56;5044358;28;20242;-66
2023/11/25 05:13:27;;;;;;;50.00;13.00;;;;;;;1.65;100.00;100949.00;5047121;28;20037;-65
2023/11/25 05:15:53;;;;;;;90.63;28.83;;;;;;;1.59;100.00;100949.41;5045380;28;22859;-65
2023/11/25 05:18:18;;;;;;;54.38;15.60;;;;;;;1.60;100.00;100939.09;5061995;28;20037;-66
2023/11/25 05:20:44;;;;;;;38.72;9.80;;;;;;;1.60;100.00;100948.47;5041672;28;20049;-65
2023/11/25 05:23:09;;;;;;;25.33;5.90;;;;;;;1.64;100.00;100940.53;5044093;28;20033;-65
2023/11/25 05:25:35;;;;;;;20.48;4.28;;;;;;;1.62;100.00;100937.25;5045423;28;20071;-66
2023/11/25 05:28:00;;;;;;;31.52;7.18;;;;;;;1.62;100.00;100944.06;5042969;28;20029;-65
2023/11/25 05:30:26;;;;;;;59.20;17.30;;;;;;;1.65;100.00;100931.94;5044478;28;20095;-65
2023/11/25 05:32:51;;;;;;;59.50;17.15;;;;;;;1.60;100.00;100933.13;5044265;28;20045;-66
2023/11/25 05:35:17;;;;;;;34.28;10.55;;;;;;;1.58;100.00;100912.75;5042375;28;20045;-65
2023/11/25 05:37:43;;;;;;;35.75;5.53;;;;;;;1.67;100.00;100914.75;5042394;28;20032;-65
2023/11/25 05:40:11;;;;;;;25.63;5.80;;;;;;;1.69;100.00;100917.22;5026265;28;20063;-65
2023/11/25 05:42:38;;;;;;;23.23;3.90;;;;;;;1.68;100.00;100931.75;5045530;28;20114;-65
2023/11/25 05:45:11;;;;;;;28.08;6.03;;;;;;;1.72;100.00;100925.53;5046027;28;20072;-65
2023/11/25 05:47:36;;;;;;;36.17;5.40;;;;;;;1.83;100.00;100927.41;5043603;28;20076;-65
2023/11/25 05:50:03;;;;;;;33.78;7.80;;;;;;;1.84;100.00;100913.69;5041351;28;20060;-66
2023/11/25 05:52:29;;;;;;;32.17;6.03;;;;;;;1.77;100.00;100907.31;5060359;28;20040;-65
2023/11/25 05:54:55;;;;;;;30.00;6.55;;;;;;;1.72;100.00;100917.84;5042626;28;20028;-66
2023/11/25 05:57:21;;;;;;;33.17;5.75;;;;;;;1.77;100.00;100921.84;5043168;28;20022;-66
2023/11/25 05:59:47;;;;;;;29.10;6.18;;;;;;;1.87;100.00;100928.88;5043021;28;20048;-65
2023/11/25 06:02:13;;;;;;;25.25;3.85;;;;;;;1.97;100.00;100920.59;5043732;28;20021;-65
2023/11/25 06:04:38;;;;;;;26.73;3.30;;;;;;;1.97;100.00;100931.66;5043631;28;20502;-65
2023/11/25 06:07:04;;;;;;;21.48;3.90;;;;;;;2.02;100.00;100926.25;5045849;28;20056;-66
2023/11/25 06:09:31;;;;;;;17.13;2.50;;;;;;;2.08;100.00;100930.97;5044372;28;20193;-66
2023/11/25 06:11:57;;;;;;;20.00;3.13;;;;;;;2.02;100.00;100937.31;5042902;28;20032;-65
2023/11/25 06:14:24;;;;;;;20.35;3.00;;;;;;;2.10;100.00;100929.94;5041353;28;20131;-66
2023/11/25 06:16:52;;;;;;;23.73;2.75;;;;;;;2.24;100.00;100938.47;5040952;28;20136;-66
2023/11/25 06:19:18;;;;;;;81.88;23.08;;;;;;;2.31;100.00;100932.06;5040159;28;20472;-66
2023/11/25 06:21:45;;;;;;;104.95;33.10;;;;;;;2.25;100.00;100927.34;5057442;28;20048;-65
2023/11/25 06:24:12;;;;;;;116.15;35.78;;;;;;;2.19;100.00;100933.69;5042005;28;21213;-66
2023/11/25 06:26:37;;;;;;;55.85;16.15;;;;;;;2.26;100.00;100931.53;5043448;28;20063;-65
2023/11/25 06:29:03;;;;;;;38.47;11.48;;;;;;;2.18;100.00;100926.91;5043782;28;20483;-66
2023/11/25 06:31:29;;;;;;;24.30;6.45;;;;;;;2.25;100.00;100929.91;5041045;28;20033;-66
2023/11/25 06:33:57;;;;;;;34.25;7.30;;;;;;;2.18;100.00;100919.22;5043612;28;20412;-65
2023/11/25 06:36:22;;;;;;;19.40;6.80;;;;;;;2.26;100.00;100904.22;5040668;28;20036;-66
2023/11/25 06:38:48;;;;;;;33.63;5.35;;;;;;;2.22;100.00;100907.88;5044284;28;20039;-66
2023/11/25 06:41:13;;;;;;;29.80;10.00;;;;;;;2.28;100.00;100904.09;5042437;28;20036;-65
2023/11/25 06:43:40;;;;;;;25.77;8.20;;;;;;;2.33;100.00;100909.75;5040321;28;20029;-66
2023/11/25 06:46:05;;;;;;;16.33;4.50;;;;;;;2.19;100.00;100915.75;5040470;28;20143;-66
2023/11/25 06:48:31;;;;;;;27.40;6.82;;;;;;;2.35;100.00;100910.47;5045174;28;20419;-65
2023/11/25 06:50:58;;;;;;;32.20;8.25;;;;;;;2.37;100.00;100897.56;5043350;28;20045;-65
2023/11/25 06:53:24;;;;;;;21.25;5.07;;;;;;;2.35;100.00;100895.09;5043261;28;20113;-65
2023/11/25 06:55:49;;;;;;;26.17;5.68;;;;;;;2.41;100.00;100899.84;5044695;28;20414;-66
2023/11/25 06:58:15;;;;;;;16.23;5.05;;;;;;;2.36;100.00;100898.50;5044319;28;20037;-66
2023/11/25 07:00:41;;;;;;;21.23;3.30;;;;;;;2.28;100.00;100896.41;5042615;28;20126;-66
2023/11/25 07:03:08;;;;;;;19.83;3.67;;;;;;;2.18;100.00;100888.53;5041823;28;20025;-66
2023/11/25 07:05:34;;;;;;;17.20;2.65;;;;;;;2.22;100.00;100882.28;5044040;28;20426;-66
2023/11/25 07:08:00;;;;;;;19.80;3.38;;;;;;;2.05;100.00;100888.47;5043732;28;20025;-65
2023/11/25 07:10:32;;;;;;;10.35;2.05;;;;;;;2.05;100.00;100885.13;5055937;28;22493;-66
2023/11/25 07:12:58;;;;;;;8.90;1.77;;;;;;;2.03;100.00;100887.78;5043968;28;20122;-66
2023/11/25 07:15:24;;;;;;;20.73;3.15;;;;;;;2.08;100.00;100887.50;5040361;28;20052;-66
2023/11/25 07:17:49;;;;;;;14.45;2.08;;;;;;;2.05;100.00;100888.47;5044040;28;20041;-66
2023/11/25 07:20:18;;;;;;;16.75;4.82;;;;;;;2.11;100.00;100892.38;5038599;28;20159;-65
2023/11/25 07:22:44;;;;;;;99.13;29.23;;;;;;;2.01;100.00;100878.56;5042438;28;20032;-66
2023/11/25 07:25:12;;;;;;;62.70;19.30;;;;;;;2.16;100.00;100884.44;5042650;28;20091;-66
2023/11/25 07:27:41;;;;;;;40.20;14.85;;;;;;;2.23;100.00;100888.25;5057366;28;20033;-66
2023/11/25 07:30:08;;;;;;;75.18;26.63;;;;;;;2.22;100.00;100891.69;5038078;28;20040;-66
2023/11/25 07:32:34;;;;;;;59.05;22.50;;;;;;;2.20;100.00;100896.91;5042051;28;20053;-66
2023/11/25 07:35:00;;;;;;;75.57;25.30;;;;;;;2.23;100.00;100896.72;5038844;28;20052;-66
2023/11/25 07:37:26;;;;;;;41.25;18.25;;;;;;;2.25;100.00;100899.19;5048129;28;20540;-65
2023/11/25 07:39:53;;;;;;;40.53;14.80;;;;;;;2.32;100.00;100896.13;5037995;28;20044;-65
2023/11/25 07:42:18;;;;;;;20.23;6.88;;;;;;;2.37;100.00;100890.69;5044439;28;20037;-66
2023/11/25 07:44:44;;;;;;;28.98;9.85;;;;;;;2.39;100.00;100881.19;5041999;28;20492;-66
2023/11/25 07:47:09;;;;;;;25.88;10.20;;;;;;;2.41;100.00;100883.66;5042912;28;20045;-66
2023/11/25 07:49:35;;;;;;;30.42;8.63;;;;;;;2.44;100.00;100884.25;5044302;28;20045;-66
2023/11/25 07:52:00;;;;;;;19.83;4.88;;;;;;;2.47;100.00;100883.25;5042204;28;20037;-66
2023/11/25 07:54:26;;;;;;;28.13;8.77;;;;;;;2.44;100.00;100889.38;5040027;28;20048;-67
2023/11/25 07:56:51;;;;;;;17.08;5.40;;;;;;;2.57;100.00;100896.25;5046251;28;20503;-66
2023/11/25 07:59:17;;;;;;;18.30;4.43;;;;;;;2.62;100.00;100896.75;5044675;28;20407;-66
2023/11/25 08:01:43;;;;;;;18.08;5.97;;;;;;;2.67;100.00;100890.41;5039496;28;20037;-66
2023/11/25 08:04:09;;;;;;;26.38;6.00;;;;;;;2.63;100.00;100890.72;5043861;28;20060;-66
2023/11/25 08:06:34;;;;;;;15.60;6.53;;;;;;;2.76;100.00;100895.84;5042667;28;20036;-66
2023/11/25 08:09:00;;;;;;;26.73;6.25;;;;;;;2.76;100.00;100893.28;5040991;28;20087;-67
2023/11/25 08:11:27;;;;;;;17.65;5.20;;;;;;;2.76;100.00;100883.06;5042126;28;20333;-66
2023/11/25 08:13:53;;;;;;;49.38;18.77;;;;;;;2.70;100.00;100890.22;5039052;28;20057;-67
2023/11/25 08:16:18;;;;;;;29.33;12.85;;;;;;;2.68;100.00;100889.50;5042324;28;20415;-65
2023/11/25 08:18:45;;;;;;;18.10;4.93;;;;;;;2.64;100.00;100890.63;5046006;28;20037;-66
2023/11/25 08:21:11;;;;;;;16.67;2.95;;;;;;;2.71;100.00;100886.75;5039582;28;20127;-66
2023/11/25 08:23:37;;;;;;;14.77;2.42;;;;;;;2.76;100.00;100903.53;5043943;28;20632;-66
2023/11/25 08:26:02;;;;;;;20.80;2.50;;;;;;;2.73;100.00;100904.53;5043349;28;20041;-66
2023/11/25 08:28:28;;;;;;;16.25;2.95;;;;;;;2.79;100.00;100896.47;5026716;28;20190;-67
2023/11/25 08:30:53;;;;;;;16.05;2.33;;;;;;;2.78;100.00;100899.13;5042092;28;20752;-67
2023/11/25 08:33:19;;;;;;;10.85;2.30;;;;;;;2.79;100.00;100893.91;5038296;28;20780;-66
2023/11/25 08:35:45;;;;;;;18.00;2.70;;;;;;;2.90;100.00;100894.00;5041728;28;20723;-66
2023/11/25 08:38:11;;;;;;;20.55;2.28;;;;;;;2.85;100.00;100898.63;5040523;28;20041;-66
2023/11/25 08:40:36;;;;;;;18.20;1.95;;;;;;;2.91;100.00;100905.88;5037962;28;20085;-66
2023/11/25 08:43:08;;;;;;;14.23;1.75;;;;;;;2.89;100.00;100902.59;5040113;28;20041;-66
2023/11/25 08:45:37;;;;;;;17.88;2.20;;;;;;;2.95;100.00;100903.94;5059146;28;20045;-66
2023/11/25 08:48:03;;;;;;;20.08;2.60;;;;;;;3.05;100.00;100896.44;5041424;28;20437;-66
2023/11/25 08:50:29;;;;;;;10.48;1.98;;;;;;;3.14;100.00;100897.56;5047252;28;20495;-67
2023/11/25 08:52:54;;;;;;;14.23;2.60;;;;;;;3.18;100.00;100909.22;5046025;28;20040;-66
2023/11/25 08:55:22;;;;;;;18.92;2.55;;;;;;;3.28;100.00;100907.69;5044843;28;20135;-66
2023/11/25 08:57:48;;;;;;;20.02;3.60;;;;;;;3.17;100.00;100907.59;5045166;28;20032;-66
2023/11/25 09:00:14;;;;;;;20.30;2.45;;;;;;;3.19;100.00;100906.56;5039502;28;20227;-66
2023/11/25 09:02:44;;;;;;;16.15;1.92;;;;;;;3.29;100.00;100910.13;5046550;28;20403;-66
2023/11/25 09:05:10;;;;;;;16.08;2.13;;;;;;;3.18;100.00;100904.09;5044720;28;20057;-66
2023/11/25 09:07:39;;;;;;;18.98;3.65;;;;;;;3.21;100.00;100917.53;5043921;28;20450;-66
2023/11/25 09:10:05;;;;;;;7.53;1.50;;;;;;;3.36;100.00;100909.72;5042471;28;20036;-65
2023/11/25 09:12:31;;;;;;;15.30;1.90;;;;;;;3.37;100.00;100901.09;5043258;28;20388;-66
2023/11/25 09:14:57;;;;;;;18.48;2.53;;;;;;;3.26;100.00;100906.97;5045167;28;20036;-66
2023/11/25 09:17:22;;;;;;;12.35;1.65;;;;;;;3.32;100.00;100903.97;5049466;28;20032;-66
2023/11/25 09:19:48;;;;;;;6.90;2.55;;;;;;;3.26;100.00;100899.28;5051404;28;20037;-66
2023/11/25 09:22:13;;;;;;;8.48;2.28;;;;;;;3.38;100.00;100906.13;5055611;28;20040;-66
2023/11/25 09:24:40;;;;;;;12.25;1.70;;;;;;;3.30;100.00;100906.66;5054082;28;20044;-67
2023/11/25 09:27:05;;;;;;;18.50;2.10;;;;;;;3.36;100.00;100902.03;5051381;28;20093;-66
2023/11/25 09:29:31;;;;;;;17.25;2.05;;;;;;;3.44;100.00;100895.41;5049546;28;20049;-65
2023/11/25 09:31:57;;;;;;;8.43;2.08;;;;;;;3.59;100.00;100888.41;5044054;28;20688;-66
2023/11/25 09:34:23;;;;;;;18.52;2.25;;;;;;;3.68;100.00;100892.88;5043050;28;20409;-66
2023/11/25 09:36:49;;;;;;;12.50;1.88;;;;;;;3.85;100.00;100885.75;5040863;28;20025;-66
2023/11/25 09:39:14;;;;;;;14.20;2.28;;;;;;;3.90;100.00;100888.81;5043773;28;20446;-66
2023/11/25 09:41:40;;;;;;;7.85;1.88;;;;;;;3.94;100.00;100887.66;5043230;28;20048;-66
2023/11/25 09:44:08;;;;;;;13.80;4.78;;;;;;;3.86;100.00;100889.94;5045353;28;20038;-67
2023/11/25 09:46:34;;;;;;;77.40;19.77;;;;;;;3.90;100.00;100891.38;5059100;28;20124;-66
2023/11/25 09:49:00;;;;;;;58.58;13.88;;;;;;;3.90;100.00;100896.50;5043744;28;20025;-66
2023/11/25 09:51:32;;;;;;;89.90;25.95;;;;;;;4.01;100.00;100888.84;5044211;28;20045;-65
2023/11/25 09:54:03;;;;;;;113.05;31.50;;;;;;;4.13;100.00;100886.31;5048177;28;20487;-66
2023/11/25 09:56:29;;;;;;;28.67;6.70;;;;;;;3.93;100.00;100890.31;5042587;28;20033;-65
2023/11/25 09:58:55;;;;;;;16.65;3.50;;;;;;;3.94;100.00;100879.09;5045535;28;20040;-68
2023/11/25 10:01:22;;;;;;;54.33;17.02;;;;;;;3.94;100.00;100871.41;5045708;28;20442;-66
2023/11/25 10:03:51;;;;;;;33.25;9.02;;;;;;;3.90;100.00;100870.84;5044481;28;20027;-66
2023/11/25 10:06:18;;;;;;;21.17;6.55;;;;;;;3.93;100.00;100869.78;5043585;28;20377;-66
2023/11/25 10:08:44;;;;;;;28.42;8.52;;;;;;;4.02;100.00;100869.13;5046542;28;20036;-66
2023/11/25 10:11:10;;;;;;;25.05;8.57;;;;;;;4.02;100.00;100872.50;5045013;28;20048;-65
2023/11/25 10:13:43;;;;;;;15.57;2.92;;;;;;;3.98;100.00;100871.09;5041454;28;20041;-66
2023/11/25 10:16:09;;;;;;;13.98;3.83;;;;;;;4.01;100.00;100863.19;5043511;28;20424;-67
2023/11/25 10:18:36;;;;;;;20.85;5.90;;;;;;;4.06;100.00;100865.41;5045860;28;20033;-66
2023/11/25 10:21:05;;;;;;;17.70;2.20;;;;;;;4.22;100.00;100860.78;5039086;28;20496;-66
2023/11/25 10:23:32;;;;;;;21.67;4.13;;;;;;;4.28;100.00;100865.47;5043689;28;20395;-66
2023/11/25 10:26:03;;;;;;;11.40;2.97;;;;;;;4.29;100.00;100861.97;5043906;28;20041;-67
2023/11/25 10:28:32;;;;;;;14.00;2.97;;;;;;;4.44;100.00;100859.19;5058838;28;20044;-66
2023/11/25 10:30:59;;;;;;;16.95;2.80;;;;;;;4.55;100.00;100856.63;5044003;28;20087;-66
2023/11/25 10:33:27;;;;;;;7.88;1.90;;;;;;;4.60;100.00;100866.56;5042311;28;20037;-67
2023/11/25 10:35:53;;;;;;;10.88;2.22;;;;;;;4.66;100.00;100858.41;5034093;28;20033;-66
2023/11/25 10:38:22;;;;;;;8.45;2.28;;;;;;;4.74;100.00;100860.38;5038982;28;20037;-66
2023/11/25 10:40:51;;;;;;;8.10;2.92;;;;;;;4.67;100.00;100842.03;5042219;28;20041;-66
2023/11/25 10:43:18;;;;;;;9.98;2.10;;;;;;;4.62;100.00;100847.53;5060029;28;20041;-66
2023/11/25 10:45:43;;;;;;;9.15;1.67;;;;;;;4.56;100.00;100854.88;5042667;28;20064;-67
2023/11/25 10:48:11;;;;;;;8.73;1.85;;;;;;;4.63;100.00;100850.91;5044500;28;20060;-66
2023/11/25 10:50:41;;;;;;;13.60;1.70;;;;;;;4.57;100.00;100859.91;5044045;28;20561;-66
2023/11/25 10:53:11;;;;;;;11.27;1.50;;;;;;;4.57;100.00;100848.81;5040240;28;20078;-67
2023/11/25 10:55:37;;;;;;;13.00;1.83;;;;;;;4.58;100.00;100842.75;5058328;28;20313;-66
2023/11/25 10:58:05;;;;;;;9.48;1.90;;;;;;;4.76;100.00;100846.47;5042030;28;20091;-67
2023/11/25 11:00:31;;;;;;;14.07;1.67;;;;;;;4.86;100.00;100852.56;5045004;28;20051;-66
2023/11/25 11:03:01;;;;;;;11.45;1.67;;;;;;;5.05;100.00;100851.16;5040798;28;20040;-66
2023/11/25 11:05:40;;;;;;;14.98;1.85;;;;;;;5.24;100.00;100841.06;5042756;28;20036;-66
2023/11/25 11:08:17;;;;;;;12.20;2.80;;;;;;;5.31;100.00;100843.13;5042527;28;20024;-66
2023/11/25 11:10:50;;;;;;;28.33;8.60;;;;;;;5.42;100.00;100843.91;5041187;28;20030;-66
2023/11/25 11:13:22;;;;;;;22.90;6.30;;;;;;;5.27;100.00;100827.13;5026841;28;20047;-66